AKU777 KORD-KLAX
Flight info
| Callsign | AKU777 |
|---|---|
| Flight time | N/A |
| Altitude | 30000 |
| Route | PEKUE PIPPN ROTTN LEFAM Q90 YAMHA/N0496F320 Q90 DNERO ANJLL4 |
| Aircraft | B77L/H-SDE1E2E3FGHIJ2J3J4J5M1RWXY/LB1D1 |
Departure
| Time | 2026-04-30 14:14 |
|---|---|
| Airport | Chicago O'Hare International Airport (KORD) |
Arrival
| Time | N/A |
|---|---|
| Airport | Los Angeles International Airport (KLAX) |
| Time | Latitude | Longitude | Altitude | Speed | Heading |
|---|---|---|---|---|---|
| 2026-04-30 13:54 | 41.96266 | -87.91964 | 675 ft | 0 kts | 59° |
| 2026-04-30 14:03 | 41.96265 | -87.91967 | 675 ft | 2 kts | 59° |
| 2026-04-30 14:04 | 41.96252 | -87.91997 | 673 ft | 4 kts | 59° |
| 2026-04-30 14:04 | 41.96241 | -87.92021 | 672 ft | 2 kts | 72° |
| 2026-04-30 14:04 | 41.96234 | -87.92049 | 671 ft | 4 kts | 66° |
| 2026-04-30 14:04 | 41.96222 | -87.92076 | 674 ft | 4 kts | 34° |
| 2026-04-30 14:05 | 41.96209 | -87.92083 | 674 ft | 0 kts | 0° |
| 2026-04-30 14:09 | 41.96273 | -87.92084 | 678 ft | 19 kts | 360° |
| 2026-04-30 14:10 | 41.96386 | -87.92084 | 677 ft | 3 kts | 359° |
| 2026-04-30 14:10 | 41.96407 | -87.92087 | 677 ft | 3 kts | 349° |
| 2026-04-30 14:10 | 41.96422 | -87.92103 | 677 ft | 3 kts | 292° |
| 2026-04-30 14:10 | 41.96423 | -87.92132 | 678 ft | 3 kts | 273° |
| 2026-04-30 14:11 | 41.96423 | -87.92206 | 680 ft | 18 kts | 269° |
| 2026-04-30 14:11 | 41.96421 | -87.92392 | 681 ft | 20 kts | 270° |
| 2026-04-30 14:11 | 41.96421 | -87.92582 | 678 ft | 20 kts | 270° |
| 2026-04-30 14:11 | 41.96421 | -87.92772 | 680 ft | 20 kts | 270° |
| 2026-04-30 14:12 | 41.96421 | -87.92960 | 680 ft | 20 kts | 270° |
| 2026-04-30 14:12 | 41.96436 | -87.93111 | 676 ft | 14 kts | 313° |
| 2026-04-30 14:12 | 41.96530 | -87.93133 | 679 ft | 14 kts | 4° |
| 2026-04-30 14:12 | 41.96570 | -87.93027 | 677 ft | 14 kts | 90° |
| 2026-04-30 14:13 | 41.96571 | -87.92881 | 680 ft | 32 kts | 90° |
| 2026-04-30 14:13 | 41.96572 | -87.92123 | 679 ft | 130 kts | 90° |
| 2026-04-30 14:13 | 41.96574 | -87.90731 | 679 ft | 207 kts | 90° |
| 2026-04-30 14:13 | 41.96582 | -87.88913 | 1082 ft | 237 kts | 90° |
| 2026-04-30 14:14 | 41.96578 | -87.87000 | 2400 ft | 224 kts | 89° |
| 2026-04-30 14:14 | 41.96558 | -87.85164 | 3310 ft | 219 kts | 90° |
| 2026-04-30 14:14 | 41.96523 | -87.83177 | 3587 ft | 240 kts | 90° |
| 2026-04-30 14:14 | 41.96479 | -87.80853 | 4013 ft | 255 kts | 89° |
| 2026-04-30 14:15 | 41.96419 | -87.78412 | 4536 ft | 266 kts | 89° |
| 2026-04-30 14:15 | 41.96360 | -87.76348 | 5054 ft | 273 kts | 89° |
| 2026-04-30 14:15 | 41.96237 | -87.74109 | 5531 ft | 281 kts | 99° |
| 2026-04-30 14:15 | 41.95447 | -87.71659 | 6070 ft | 294 kts | 128° |
| 2026-04-30 14:16 | 41.93995 | -87.69748 | 6682 ft | 298 kts | 149° |
| 2026-04-30 14:16 | 41.92078 | -87.68703 | 7335 ft | 296 kts | 171° |
| 2026-04-30 14:16 | 41.90157 | -87.68169 | 7969 ft | 299 kts | 173° |
| 2026-04-30 14:16 | 41.88418 | -87.67719 | 8525 ft | 303 kts | 174° |
| 2026-04-30 14:17 | 41.86330 | -87.67179 | 9200 ft | 308 kts | 174° |
| 2026-04-30 14:17 | 41.84244 | -87.66634 | 9865 ft | 312 kts | 174° |
| 2026-04-30 14:17 | 41.82105 | -87.66252 | 10354 ft | 310 kts | 191° |
| 2026-04-30 14:17 | 41.80053 | -87.67091 | 10504 ft | 312 kts | 221° |
| 2026-04-30 14:18 | 41.78587 | -87.69210 | 10629 ft | 315 kts | 249° |
| 2026-04-30 14:18 | 41.77881 | -87.71980 | 10783 ft | 327 kts | 263° |
| 2026-04-30 14:18 | 41.77619 | -87.78198 | 11927 ft | 342 kts | 275° |
| 2026-04-30 14:19 | 41.77825 | -87.83918 | 13425 ft | 350 kts | 276° |
| 2026-04-30 14:19 | 41.77941 | -87.87050 | 14180 ft | 355 kts | 275° |
| 2026-04-30 14:19 | 41.78048 | -87.90341 | 14958 ft | 358 kts | 275° |
| 2026-04-30 14:20 | 41.78144 | -87.93684 | 15778 ft | 361 kts | 275° |
| 2026-04-30 14:20 | 41.78230 | -87.97069 | 16578 ft | 364 kts | 274° |
| 2026-04-30 14:20 | 41.78384 | -88.03914 | 18094 ft | 372 kts | 274° |
| 2026-04-30 14:21 | 41.78456 | -88.07393 | 18784 ft | 375 kts | 274° |
| 2026-04-30 14:21 | 41.78516 | -88.10354 | 19370 ft | 376 kts | 274° |
| 2026-04-30 14:21 | 41.78653 | -88.17382 | 20800 ft | 379 kts | 274° |
| 2026-04-30 14:22 | 41.78720 | -88.20923 | 21478 ft | 381 kts | 274° |
| 2026-04-30 14:22 | 41.78853 | -88.28062 | 22812 ft | 386 kts | 274° |
| 2026-04-30 14:22 | 41.78919 | -88.31668 | 23478 ft | 388 kts | 274° |
| 2026-04-30 14:23 | 41.79047 | -88.38941 | 24588 ft | 392 kts | 274° |
| 2026-04-30 14:23 | 41.79173 | -88.46292 | 25634 ft | 397 kts | 274° |
| 2026-04-30 14:24 | 41.79295 | -88.53726 | 26643 ft | 401 kts | 273° |
| 2026-04-30 14:24 | 41.79343 | -88.56741 | 27051 ft | 403 kts | 273° |
| 2026-04-30 14:25 | 41.79461 | -88.64295 | 28028 ft | 407 kts | 273° |
| 2026-04-30 14:25 | 41.79571 | -88.71649 | 28923 ft | 411 kts | 273° |
| 2026-04-30 14:26 | 41.79621 | -88.79361 | 29767 ft | 416 kts | 270° |
| 2026-04-30 14:26 | 41.79392 | -88.83242 | 30151 ft | 420 kts | 266° |
| 2026-04-30 14:26 | 41.78379 | -88.90994 | 30832 ft | 423 kts | 263° |
| 2026-04-30 14:27 | 41.77856 | -88.94878 | 31182 ft | 423 kts | 263° |
| 2026-04-30 14:27 | 41.77337 | -88.98766 | 31535 ft | 424 kts | 263° |
| 2026-04-30 14:27 | 41.76820 | -89.02649 | 31867 ft | 424 kts | 263° |
| 2026-04-30 14:28 | 41.75789 | -89.10401 | 32518 ft | 425 kts | 263° |